<?xml version="1.0" encoding="UTF-8" standalone="no" ?>
<gpx xmlns="http://www.topografix.com/GPX/1/1" xmlns:xsi="http://www.w3.org/2001/XMLSchema-instance" xsi:schemaLocation="http://www.topografix.com/GPX/1/1 http://www.topografix.com/GPX/1/1/gpx.xsd" version="1.1" creator="VisuGPX - https://www.visugpx.com">
  <metadata>
    <name>LaFare - Ste Rosalie</name>
  </metadata>
  <trk>
    <name><![CDATA[LaFareMA-Rando-2019-05-07-142158]]></name>
    <trkseg>
      <trkpt lat="43.55622" lon="5.19365">
        <ele>109</ele>
        <time>2019-05-07T12:11:32Z</time>
      </trkpt>
      <trkpt lat="43.55631" lon="5.19362">
        <ele>103</ele>
        <time>2019-05-07T12:13:05Z</time>
      </trkpt>
      <trkpt lat="43.5564" lon="5.19358">
        <ele>101</ele>
        <time>2019-05-07T12:13:29Z</time>
      </trkpt>
      <trkpt lat="43.55648" lon="5.19363">
        <ele>100</ele>
        <time>2019-05-07T12:13:39Z</time>
      </trkpt>
      <trkpt lat="43.55656" lon="5.19357">
        <ele>102</ele>
        <time>2019-05-07T12:14:45Z</time>
      </trkpt>
      <trkpt lat="43.55669" lon="5.19351">
        <ele>118</ele>
        <time>2019-05-07T12:14:59Z</time>
      </trkpt>
      <trkpt lat="43.55678" lon="5.19355">
        <ele>100</ele>
        <time>2019-05-07T12:15:20Z</time>
      </trkpt>
      <trkpt lat="43.55688" lon="5.19354">
        <ele>103</ele>
        <time>2019-05-07T12:15:33Z</time>
      </trkpt>
      <trkpt lat="43.55697" lon="5.19353">
        <ele>104</ele>
        <time>2019-05-07T12:15:44Z</time>
      </trkpt>
      <trkpt lat="43.55706" lon="5.19353">
        <ele>106</ele>
        <time>2019-05-07T12:15:54Z</time>
      </trkpt>
      <trkpt lat="43.55716" lon="5.1935">
        <ele>108</ele>
        <time>2019-05-07T12:16:06Z</time>
      </trkpt>
      <trkpt lat="43.55725" lon="5.19349">
        <ele>110</ele>
        <time>2019-05-07T12:16:18Z</time>
      </trkpt>
      <trkpt lat="43.55734" lon="5.19348">
        <ele>112</ele>
        <time>2019-05-07T12:16:29Z</time>
      </trkpt>
      <trkpt lat="43.55744" lon="5.19348">
        <ele>111</ele>
        <time>2019-05-07T12:16:41Z</time>
      </trkpt>
      <trkpt lat="43.55753" lon="5.19345">
        <ele>112</ele>
        <time>2019-05-07T12:16:52Z</time>
      </trkpt>
      <trkpt lat="43.55762" lon="5.19341">
        <ele>112</ele>
        <time>2019-05-07T12:17:07Z</time>
      </trkpt>
      <trkpt lat="43.55771" lon="5.19337">
        <ele>112</ele>
        <time>2019-05-07T12:17:19Z</time>
      </trkpt>
      <trkpt lat="43.5578" lon="5.19334">
        <ele>114</ele>
        <time>2019-05-07T12:17:30Z</time>
      </trkpt>
      <trkpt lat="43.55788" lon="5.19331">
        <ele>115</ele>
        <time>2019-05-07T12:17:41Z</time>
      </trkpt>
      <trkpt lat="43.55798" lon="5.19329">
        <ele>114</ele>
        <time>2019-05-07T12:17:51Z</time>
      </trkpt>
      <trkpt lat="43.55807" lon="5.19324">
        <ele>115</ele>
        <time>2019-05-07T12:18:03Z</time>
      </trkpt>
      <trkpt lat="43.55817" lon="5.1932">
        <ele>115</ele>
        <time>2019-05-07T12:18:14Z</time>
      </trkpt>
      <trkpt lat="43.55825" lon="5.19314">
        <ele>117</ele>
        <time>2019-05-07T12:18:26Z</time>
      </trkpt>
      <trkpt lat="43.55834" lon="5.1931">
        <ele>117</ele>
        <time>2019-05-07T12:18:38Z</time>
      </trkpt>
      <trkpt lat="43.55843" lon="5.19304">
        <ele>118</ele>
        <time>2019-05-07T12:18:49Z</time>
      </trkpt>
      <trkpt lat="43.55851" lon="5.19298">
        <ele>120</ele>
        <time>2019-05-07T12:18:59Z</time>
      </trkpt>
      <trkpt lat="43.55858" lon="5.19291">
        <ele>120</ele>
        <time>2019-05-07T12:19:10Z</time>
      </trkpt>
      <trkpt lat="43.55866" lon="5.19285">
        <ele>121</ele>
        <time>2019-05-07T12:19:21Z</time>
      </trkpt>
      <trkpt lat="43.55874" lon="5.19278">
        <ele>122</ele>
        <time>2019-05-07T12:19:33Z</time>
      </trkpt>
      <trkpt lat="43.55883" lon="5.19271">
        <ele>122</ele>
        <time>2019-05-07T12:19:44Z</time>
      </trkpt>
      <trkpt lat="43.55891" lon="5.19266">
        <ele>124</ele>
        <time>2019-05-07T12:19:54Z</time>
      </trkpt>
      <trkpt lat="43.55898" lon="5.19257">
        <ele>123</ele>
        <time>2019-05-07T12:20:03Z</time>
      </trkpt>
      <trkpt lat="43.55905" lon="5.19248">
        <ele>125</ele>
        <time>2019-05-07T12:20:14Z</time>
      </trkpt>
      <trkpt lat="43.55914" lon="5.19244">
        <ele>125</ele>
        <time>2019-05-07T12:20:26Z</time>
      </trkpt>
      <trkpt lat="43.55923" lon="5.19243">
        <ele>126</ele>
        <time>2019-05-07T12:21:11Z</time>
      </trkpt>
      <trkpt lat="43.55932" lon="5.1924">
        <ele>129</ele>
        <time>2019-05-07T12:21:21Z</time>
      </trkpt>
      <trkpt lat="43.55942" lon="5.19239">
        <ele>131</ele>
        <time>2019-05-07T12:21:32Z</time>
      </trkpt>
      <trkpt lat="43.55951" lon="5.19238">
        <ele>132</ele>
        <time>2019-05-07T12:21:40Z</time>
      </trkpt>
      <trkpt lat="43.5596" lon="5.19236">
        <ele>132</ele>
        <time>2019-05-07T12:21:52Z</time>
      </trkpt>
      <trkpt lat="43.55969" lon="5.19232">
        <ele>133</ele>
        <time>2019-05-07T12:22:06Z</time>
      </trkpt>
      <trkpt lat="43.55978" lon="5.19227">
        <ele>134</ele>
        <time>2019-05-07T12:22:19Z</time>
      </trkpt>
      <trkpt lat="43.55987" lon="5.19222">
        <ele>134</ele>
        <time>2019-05-07T12:22:32Z</time>
      </trkpt>
      <trkpt lat="43.55995" lon="5.19217">
        <ele>135</ele>
        <time>2019-05-07T12:22:46Z</time>
      </trkpt>
      <trkpt lat="43.56004" lon="5.19213">
        <ele>138</ele>
        <time>2019-05-07T12:22:58Z</time>
      </trkpt>
      <trkpt lat="43.56013" lon="5.1921">
        <ele>140</ele>
        <time>2019-05-07T12:23:10Z</time>
      </trkpt>
      <trkpt lat="43.56022" lon="5.19203">
        <ele>140</ele>
        <time>2019-05-07T12:23:24Z</time>
      </trkpt>
      <trkpt lat="43.5603" lon="5.19196">
        <ele>140</ele>
        <time>2019-05-07T12:23:39Z</time>
      </trkpt>
      <trkpt lat="43.56037" lon="5.19188">
        <ele>141</ele>
        <time>2019-05-07T12:23:52Z</time>
      </trkpt>
      <trkpt lat="43.56043" lon="5.19179">
        <ele>142</ele>
        <time>2019-05-07T12:24:04Z</time>
      </trkpt>
      <trkpt lat="43.56051" lon="5.1917">
        <ele>143</ele>
        <time>2019-05-07T12:24:16Z</time>
      </trkpt>
      <trkpt lat="43.56057" lon="5.19162">
        <ele>143</ele>
        <time>2019-05-07T12:24:40Z</time>
      </trkpt>
      <trkpt lat="43.56063" lon="5.19152">
        <ele>148</ele>
        <time>2019-05-07T12:26:06Z</time>
      </trkpt>
      <trkpt lat="43.5607" lon="5.19143">
        <ele>149</ele>
        <time>2019-05-07T12:26:18Z</time>
      </trkpt>
      <trkpt lat="43.56077" lon="5.19134">
        <ele>150</ele>
        <time>2019-05-07T12:26:29Z</time>
      </trkpt>
      <trkpt lat="43.56083" lon="5.19126">
        <ele>151</ele>
        <time>2019-05-07T12:26:40Z</time>
      </trkpt>
      <trkpt lat="43.5609" lon="5.19117">
        <ele>152</ele>
        <time>2019-05-07T12:26:52Z</time>
      </trkpt>
      <trkpt lat="43.56098" lon="5.19109">
        <ele>153</ele>
        <time>2019-05-07T12:27:04Z</time>
      </trkpt>
      <trkpt lat="43.56105" lon="5.19101">
        <ele>154</ele>
        <time>2019-05-07T12:27:16Z</time>
      </trkpt>
      <trkpt lat="43.56114" lon="5.19094">
        <ele>155</ele>
        <time>2019-05-07T12:27:28Z</time>
      </trkpt>
      <trkpt lat="43.56122" lon="5.19088">
        <ele>156</ele>
        <time>2019-05-07T12:27:41Z</time>
      </trkpt>
      <trkpt lat="43.56131" lon="5.19084">
        <ele>158</ele>
        <time>2019-05-07T12:27:53Z</time>
      </trkpt>
      <trkpt lat="43.5614" lon="5.19082">
        <ele>159</ele>
        <time>2019-05-07T12:28:04Z</time>
      </trkpt>
      <trkpt lat="43.5615" lon="5.19079">
        <ele>158</ele>
        <time>2019-05-07T12:28:17Z</time>
      </trkpt>
      <trkpt lat="43.56159" lon="5.19077">
        <ele>160</ele>
        <time>2019-05-07T12:28:30Z</time>
      </trkpt>
      <trkpt lat="43.56168" lon="5.19074">
        <ele>161</ele>
        <time>2019-05-07T12:28:42Z</time>
      </trkpt>
      <trkpt lat="43.56177" lon="5.19069">
        <ele>161</ele>
        <time>2019-05-07T12:28:55Z</time>
      </trkpt>
      <trkpt lat="43.56186" lon="5.19072">
        <ele>163</ele>
        <time>2019-05-07T12:29:12Z</time>
      </trkpt>
      <trkpt lat="43.56194" lon="5.19081">
        <ele>163</ele>
        <time>2019-05-07T12:30:21Z</time>
      </trkpt>
      <trkpt lat="43.562" lon="5.1909">
        <ele>163</ele>
        <time>2019-05-07T12:30:33Z</time>
      </trkpt>
      <trkpt lat="43.56205" lon="5.191">
        <ele>163</ele>
        <time>2019-05-07T12:30:44Z</time>
      </trkpt>
      <trkpt lat="43.56209" lon="5.19112">
        <ele>163</ele>
        <time>2019-05-07T12:30:54Z</time>
      </trkpt>
      <trkpt lat="43.56212" lon="5.19124">
        <ele>164</ele>
        <time>2019-05-07T12:31:05Z</time>
      </trkpt>
      <trkpt lat="43.56215" lon="5.19137">
        <ele>164</ele>
        <time>2019-05-07T12:31:16Z</time>
      </trkpt>
      <trkpt lat="43.56218" lon="5.1915">
        <ele>166</ele>
        <time>2019-05-07T12:31:42Z</time>
      </trkpt>
      <trkpt lat="43.56218" lon="5.19162">
        <ele>167</ele>
        <time>2019-05-07T12:31:52Z</time>
      </trkpt>
      <trkpt lat="43.56216" lon="5.19175">
        <ele>167</ele>
        <time>2019-05-07T12:32:03Z</time>
      </trkpt>
      <trkpt lat="43.5621" lon="5.19185">
        <ele>167</ele>
        <time>2019-05-07T12:32:14Z</time>
      </trkpt>
      <trkpt lat="43.56204" lon="5.19195">
        <ele>168</ele>
        <time>2019-05-07T12:32:26Z</time>
      </trkpt>
      <trkpt lat="43.56199" lon="5.19206">
        <ele>169</ele>
        <time>2019-05-07T12:32:36Z</time>
      </trkpt>
      <trkpt lat="43.56195" lon="5.19218">
        <ele>169</ele>
        <time>2019-05-07T12:32:48Z</time>
      </trkpt>
      <trkpt lat="43.56193" lon="5.19231">
        <ele>170</ele>
        <time>2019-05-07T12:33:00Z</time>
      </trkpt>
      <trkpt lat="43.56192" lon="5.19243">
        <ele>173</ele>
        <time>2019-05-07T12:33:13Z</time>
      </trkpt>
      <trkpt lat="43.56192" lon="5.19257">
        <ele>174</ele>
        <time>2019-05-07T12:33:25Z</time>
      </trkpt>
      <trkpt lat="43.5619" lon="5.19269">
        <ele>175</ele>
        <time>2019-05-07T12:33:37Z</time>
      </trkpt>
      <trkpt lat="43.56185" lon="5.19281">
        <ele>177</ele>
        <time>2019-05-07T12:33:50Z</time>
      </trkpt>
      <trkpt lat="43.56185" lon="5.19293">
        <ele>178</ele>
        <time>2019-05-07T12:34:04Z</time>
      </trkpt>
      <trkpt lat="43.56189" lon="5.19305">
        <ele>179</ele>
        <time>2019-05-07T12:34:15Z</time>
      </trkpt>
      <trkpt lat="43.56195" lon="5.19316">
        <ele>180</ele>
        <time>2019-05-07T12:34:28Z</time>
      </trkpt>
      <trkpt lat="43.56196" lon="5.19329">
        <ele>182</ele>
        <time>2019-05-07T12:34:41Z</time>
      </trkpt>
      <trkpt lat="43.56193" lon="5.19342">
        <ele>184</ele>
        <time>2019-05-07T12:34:52Z</time>
      </trkpt>
      <trkpt lat="43.56195" lon="5.19355">
        <ele>184</ele>
        <time>2019-05-07T12:35:05Z</time>
      </trkpt>
      <trkpt lat="43.56202" lon="5.19363">
        <ele>185</ele>
        <time>2019-05-07T12:35:55Z</time>
      </trkpt>
      <trkpt lat="43.56209" lon="5.19371">
        <ele>184</ele>
        <time>2019-05-07T12:36:08Z</time>
      </trkpt>
      <trkpt lat="43.56217" lon="5.19378">
        <ele>185</ele>
        <time>2019-05-07T12:36:21Z</time>
      </trkpt>
      <trkpt lat="43.56222" lon="5.19388">
        <ele>185</ele>
        <time>2019-05-07T12:36:39Z</time>
      </trkpt>
      <trkpt lat="43.56217" lon="5.19399">
        <ele>185</ele>
        <time>2019-05-07T12:38:29Z</time>
      </trkpt>
      <trkpt lat="43.5621" lon="5.19408">
        <ele>186</ele>
        <time>2019-05-07T12:38:49Z</time>
      </trkpt>
      <trkpt lat="43.562" lon="5.19412">
        <ele>186</ele>
        <time>2019-05-07T12:39:01Z</time>
      </trkpt>
      <trkpt lat="43.56191" lon="5.19415">
        <ele>187</ele>
        <time>2019-05-07T12:39:17Z</time>
      </trkpt>
      <trkpt lat="43.56182" lon="5.19418">
        <ele>188</ele>
        <time>2019-05-07T12:39:27Z</time>
      </trkpt>
      <trkpt lat="43.56173" lon="5.19421">
        <ele>188</ele>
        <time>2019-05-07T12:39:38Z</time>
      </trkpt>
      <trkpt lat="43.56164" lon="5.19423">
        <ele>188</ele>
        <time>2019-05-07T12:39:50Z</time>
      </trkpt>
      <trkpt lat="43.56155" lon="5.19426">
        <ele>191</ele>
        <time>2019-05-07T12:40:03Z</time>
      </trkpt>
      <trkpt lat="43.56146" lon="5.19426">
        <ele>193</ele>
        <time>2019-05-07T12:40:18Z</time>
      </trkpt>
      <trkpt lat="43.5614" lon="5.19436">
        <ele>195</ele>
        <time>2019-05-07T12:40:32Z</time>
      </trkpt>
      <trkpt lat="43.56136" lon="5.19447">
        <ele>195</ele>
        <time>2019-05-07T12:40:54Z</time>
      </trkpt>
      <trkpt lat="43.56131" lon="5.19459">
        <ele>197</ele>
        <time>2019-05-07T12:41:09Z</time>
      </trkpt>
      <trkpt lat="43.56136" lon="5.1947">
        <ele>196</ele>
        <time>2019-05-07T12:42:11Z</time>
      </trkpt>
      <trkpt lat="43.56136" lon="5.19483">
        <ele>198</ele>
        <time>2019-05-07T12:42:33Z</time>
      </trkpt>
      <trkpt lat="43.56137" lon="5.1947">
        <ele>197</ele>
        <time>2019-05-07T12:44:45Z</time>
      </trkpt>
      <trkpt lat="43.56137" lon="5.19457">
        <ele>196</ele>
        <time>2019-05-07T12:44:56Z</time>
      </trkpt>
      <trkpt lat="43.56139" lon="5.19444">
        <ele>195</ele>
        <time>2019-05-07T12:45:08Z</time>
      </trkpt>
      <trkpt lat="43.56143" lon="5.19433">
        <ele>194</ele>
        <time>2019-05-07T12:45:20Z</time>
      </trkpt>
      <trkpt lat="43.56146" lon="5.19445">
        <ele>195</ele>
        <time>2019-05-07T12:45:38Z</time>
      </trkpt>
      <trkpt lat="43.56148" lon="5.19458">
        <ele>194</ele>
        <time>2019-05-07T12:46:03Z</time>
      </trkpt>
      <trkpt lat="43.5615" lon="5.19472">
        <ele>194</ele>
        <time>2019-05-07T12:46:13Z</time>
      </trkpt>
      <trkpt lat="43.56151" lon="5.19485">
        <ele>195</ele>
        <time>2019-05-07T12:46:24Z</time>
      </trkpt>
      <trkpt lat="43.5615" lon="5.19497">
        <ele>195</ele>
        <time>2019-05-07T12:46:35Z</time>
      </trkpt>
      <trkpt lat="43.5615" lon="5.1951">
        <ele>194</ele>
        <time>2019-05-07T12:46:45Z</time>
      </trkpt>
      <trkpt lat="43.56147" lon="5.19522">
        <ele>192</ele>
        <time>2019-05-07T12:46:55Z</time>
      </trkpt>
      <trkpt lat="43.56146" lon="5.19535">
        <ele>193</ele>
        <time>2019-05-07T12:47:06Z</time>
      </trkpt>
      <trkpt lat="43.56145" lon="5.19548">
        <ele>195</ele>
        <time>2019-05-07T12:47:23Z</time>
      </trkpt>
      <trkpt lat="43.56146" lon="5.1956">
        <ele>194</ele>
        <time>2019-05-07T12:47:35Z</time>
      </trkpt>
      <trkpt lat="43.56147" lon="5.19574">
        <ele>195</ele>
        <time>2019-05-07T12:47:45Z</time>
      </trkpt>
      <trkpt lat="43.56145" lon="5.19587">
        <ele>195</ele>
        <time>2019-05-07T12:47:56Z</time>
      </trkpt>
      <trkpt lat="43.56145" lon="5.19601">
        <ele>196</ele>
        <time>2019-05-07T12:48:07Z</time>
      </trkpt>
      <trkpt lat="43.56148" lon="5.19614">
        <ele>195</ele>
        <time>2019-05-07T12:48:20Z</time>
      </trkpt>
      <trkpt lat="43.56149" lon="5.19627">
        <ele>195</ele>
        <time>2019-05-07T12:48:29Z</time>
      </trkpt>
      <trkpt lat="43.56149" lon="5.19639">
        <ele>195</ele>
        <time>2019-05-07T12:48:42Z</time>
      </trkpt>
      <trkpt lat="43.5615" lon="5.19652">
        <ele>194</ele>
        <time>2019-05-07T12:48:52Z</time>
      </trkpt>
      <trkpt lat="43.56153" lon="5.19664">
        <ele>194</ele>
        <time>2019-05-07T12:49:02Z</time>
      </trkpt>
      <trkpt lat="43.56156" lon="5.19677">
        <ele>194</ele>
        <time>2019-05-07T12:49:14Z</time>
      </trkpt>
      <trkpt lat="43.5616" lon="5.19689">
        <ele>193</ele>
        <time>2019-05-07T12:49:29Z</time>
      </trkpt>
      <trkpt lat="43.56164" lon="5.197">
        <ele>193</ele>
        <time>2019-05-07T12:49:40Z</time>
      </trkpt>
      <trkpt lat="43.56167" lon="5.19713">
        <ele>192</ele>
        <time>2019-05-07T12:49:52Z</time>
      </trkpt>
      <trkpt lat="43.5617" lon="5.19725">
        <ele>191</ele>
        <time>2019-05-07T12:50:06Z</time>
      </trkpt>
      <trkpt lat="43.56172" lon="5.19738">
        <ele>191</ele>
        <time>2019-05-07T12:50:17Z</time>
      </trkpt>
      <trkpt lat="43.56173" lon="5.19752">
        <ele>189</ele>
        <time>2019-05-07T12:50:27Z</time>
      </trkpt>
      <trkpt lat="43.56174" lon="5.19764">
        <ele>189</ele>
        <time>2019-05-07T12:50:37Z</time>
      </trkpt>
      <trkpt lat="43.56175" lon="5.19777">
        <ele>190</ele>
        <time>2019-05-07T12:50:47Z</time>
      </trkpt>
      <trkpt lat="43.56176" lon="5.1979">
        <ele>189</ele>
        <time>2019-05-07T12:54:49Z</time>
      </trkpt>
      <trkpt lat="43.56175" lon="5.19803">
        <ele>189</ele>
        <time>2019-05-07T12:55:00Z</time>
      </trkpt>
      <trkpt lat="43.56176" lon="5.19816">
        <ele>188</ele>
        <time>2019-05-07T12:55:11Z</time>
      </trkpt>
      <trkpt lat="43.56176" lon="5.19829">
        <ele>188</ele>
        <time>2019-05-07T12:55:20Z</time>
      </trkpt>
      <trkpt lat="43.56177" lon="5.19842">
        <ele>189</ele>
        <time>2019-05-07T12:55:30Z</time>
      </trkpt>
      <trkpt lat="43.56179" lon="5.19854">
        <ele>190</ele>
        <time>2019-05-07T12:55:42Z</time>
      </trkpt>
      <trkpt lat="43.56176" lon="5.19867">
        <ele>190</ele>
        <time>2019-05-07T12:55:53Z</time>
      </trkpt>
      <trkpt lat="43.56174" lon="5.1988">
        <ele>189</ele>
        <time>2019-05-07T12:56:04Z</time>
      </trkpt>
      <trkpt lat="43.56177" lon="5.19893">
        <ele>188</ele>
        <time>2019-05-07T12:56:14Z</time>
      </trkpt>
      <trkpt lat="43.56178" lon="5.19905">
        <ele>188</ele>
        <time>2019-05-07T12:56:23Z</time>
      </trkpt>
      <trkpt lat="43.5618" lon="5.19918">
        <ele>188</ele>
        <time>2019-05-07T12:56:33Z</time>
      </trkpt>
      <trkpt lat="43.56179" lon="5.19931">
        <ele>188</ele>
        <time>2019-05-07T12:56:43Z</time>
      </trkpt>
      <trkpt lat="43.56177" lon="5.19943">
        <ele>188</ele>
        <time>2019-05-07T12:56:54Z</time>
      </trkpt>
      <trkpt lat="43.56174" lon="5.19955">
        <ele>189</ele>
        <time>2019-05-07T12:57:06Z</time>
      </trkpt>
      <trkpt lat="43.56173" lon="5.19968">
        <ele>192</ele>
        <time>2019-05-07T12:57:20Z</time>
      </trkpt>
      <trkpt lat="43.56174" lon="5.19981">
        <ele>194</ele>
        <time>2019-05-07T12:57:31Z</time>
      </trkpt>
      <trkpt lat="43.56176" lon="5.19993">
        <ele>194</ele>
        <time>2019-05-07T12:57:44Z</time>
      </trkpt>
      <trkpt lat="43.56176" lon="5.20006">
        <ele>194</ele>
        <time>2019-05-07T12:57:57Z</time>
      </trkpt>
      <trkpt lat="43.56177" lon="5.20019">
        <ele>194</ele>
        <time>2019-05-07T12:58:08Z</time>
      </trkpt>
      <trkpt lat="43.56176" lon="5.20031">
        <ele>195</ele>
        <time>2019-05-07T12:58:17Z</time>
      </trkpt>
      <trkpt lat="43.56176" lon="5.20045">
        <ele>193</ele>
        <time>2019-05-07T12:58:29Z</time>
      </trkpt>
      <trkpt lat="43.56176" lon="5.20058">
        <ele>192</ele>
        <time>2019-05-07T12:58:39Z</time>
      </trkpt>
      <trkpt lat="43.56179" lon="5.2007">
        <ele>193</ele>
        <time>2019-05-07T12:58:50Z</time>
      </trkpt>
      <trkpt lat="43.56181" lon="5.20083">
        <ele>192</ele>
        <time>2019-05-07T12:59:01Z</time>
      </trkpt>
      <trkpt lat="43.56184" lon="5.20095">
        <ele>193</ele>
        <time>2019-05-07T12:59:23Z</time>
      </trkpt>
      <trkpt lat="43.56184" lon="5.20108">
        <ele>192</ele>
        <time>2019-05-07T12:59:33Z</time>
      </trkpt>
      <trkpt lat="43.56185" lon="5.20121">
        <ele>192</ele>
        <time>2019-05-07T12:59:43Z</time>
      </trkpt>
      <trkpt lat="43.56188" lon="5.20133">
        <ele>192</ele>
        <time>2019-05-07T12:59:52Z</time>
      </trkpt>
      <trkpt lat="43.56191" lon="5.20146">
        <ele>192</ele>
        <time>2019-05-07T13:00:02Z</time>
      </trkpt>
      <trkpt lat="43.56193" lon="5.2016">
        <ele>191</ele>
        <time>2019-05-07T13:00:12Z</time>
      </trkpt>
      <trkpt lat="43.56193" lon="5.20173">
        <ele>191</ele>
        <time>2019-05-07T13:00:22Z</time>
      </trkpt>
      <trkpt lat="43.56191" lon="5.20186">
        <ele>191</ele>
        <time>2019-05-07T13:00:31Z</time>
      </trkpt>
      <trkpt lat="43.56191" lon="5.20199">
        <ele>190</ele>
        <time>2019-05-07T13:00:42Z</time>
      </trkpt>
      <trkpt lat="43.5619" lon="5.20212">
        <ele>190</ele>
        <time>2019-05-07T13:00:52Z</time>
      </trkpt>
      <trkpt lat="43.5619" lon="5.20225">
        <ele>190</ele>
        <time>2019-05-07T13:01:02Z</time>
      </trkpt>
      <trkpt lat="43.56191" lon="5.20238">
        <ele>189</ele>
        <time>2019-05-07T13:01:12Z</time>
      </trkpt>
      <trkpt lat="43.56195" lon="5.2025">
        <ele>188</ele>
        <time>2019-05-07T13:01:22Z</time>
      </trkpt>
      <trkpt lat="43.56199" lon="5.20262">
        <ele>188</ele>
        <time>2019-05-07T13:01:32Z</time>
      </trkpt>
      <trkpt lat="43.56202" lon="5.20274">
        <ele>186</ele>
        <time>2019-05-07T13:01:42Z</time>
      </trkpt>
      <trkpt lat="43.56203" lon="5.20286">
        <ele>186</ele>
        <time>2019-05-07T13:01:53Z</time>
      </trkpt>
      <trkpt lat="43.56203" lon="5.20299">
        <ele>184</ele>
        <time>2019-05-07T13:02:04Z</time>
      </trkpt>
      <trkpt lat="43.56203" lon="5.20312">
        <ele>185</ele>
        <time>2019-05-07T13:02:57Z</time>
      </trkpt>
      <trkpt lat="43.56201" lon="5.20325">
        <ele>184</ele>
        <time>2019-05-07T13:03:06Z</time>
      </trkpt>
      <trkpt lat="43.56202" lon="5.20337">
        <ele>182</ele>
        <time>2019-05-07T13:03:18Z</time>
      </trkpt>
      <trkpt lat="43.56203" lon="5.2035">
        <ele>182</ele>
        <time>2019-05-07T13:03:30Z</time>
      </trkpt>
      <trkpt lat="43.56202" lon="5.20363">
        <ele>185</ele>
        <time>2019-05-07T13:03:43Z</time>
      </trkpt>
      <trkpt lat="43.56201" lon="5.20376">
        <ele>187</ele>
        <time>2019-05-07T13:03:58Z</time>
      </trkpt>
      <trkpt lat="43.56201" lon="5.20389">
        <ele>189</ele>
        <time>2019-05-07T13:04:11Z</time>
      </trkpt>
      <trkpt lat="43.56206" lon="5.20401">
        <ele>192</ele>
        <time>2019-05-07T13:04:26Z</time>
      </trkpt>
      <trkpt lat="43.56212" lon="5.2041">
        <ele>194</ele>
        <time>2019-05-07T13:04:40Z</time>
      </trkpt>
      <trkpt lat="43.56219" lon="5.20419">
        <ele>199</ele>
        <time>2019-05-07T13:05:20Z</time>
      </trkpt>
      <trkpt lat="43.56225" lon="5.20428">
        <ele>199</ele>
        <time>2019-05-07T13:06:57Z</time>
      </trkpt>
      <trkpt lat="43.56233" lon="5.20435">
        <ele>200</ele>
        <time>2019-05-07T13:07:08Z</time>
      </trkpt>
      <trkpt lat="43.56241" lon="5.20443">
        <ele>203</ele>
        <time>2019-05-07T13:07:22Z</time>
      </trkpt>
      <trkpt lat="43.56246" lon="5.20453">
        <ele>202</ele>
        <time>2019-05-07T13:07:35Z</time>
      </trkpt>
      <trkpt lat="43.56251" lon="5.20463">
        <ele>203</ele>
        <time>2019-05-07T13:07:46Z</time>
      </trkpt>
      <trkpt lat="43.56255" lon="5.20474">
        <ele>203</ele>
        <time>2019-05-07T13:08:00Z</time>
      </trkpt>
      <trkpt lat="43.56258" lon="5.20487">
        <ele>203</ele>
        <time>2019-05-07T13:08:12Z</time>
      </trkpt>
      <trkpt lat="43.56261" lon="5.20499">
        <ele>204</ele>
        <time>2019-05-07T13:08:24Z</time>
      </trkpt>
      <trkpt lat="43.56263" lon="5.20512">
        <ele>204</ele>
        <time>2019-05-07T13:08:34Z</time>
      </trkpt>
      <trkpt lat="43.56264" lon="5.20525">
        <ele>205</ele>
        <time>2019-05-07T13:08:46Z</time>
      </trkpt>
      <trkpt lat="43.56263" lon="5.20538">
        <ele>205</ele>
        <time>2019-05-07T13:08:58Z</time>
      </trkpt>
      <trkpt lat="43.56263" lon="5.20551">
        <ele>205</ele>
        <time>2019-05-07T13:09:11Z</time>
      </trkpt>
      <trkpt lat="43.56262" lon="5.20564">
        <ele>205</ele>
        <time>2019-05-07T13:09:22Z</time>
      </trkpt>
      <trkpt lat="43.56261" lon="5.20577">
        <ele>207</ele>
        <time>2019-05-07T13:09:34Z</time>
      </trkpt>
      <trkpt lat="43.56261" lon="5.2059">
        <ele>206</ele>
        <time>2019-05-07T13:09:46Z</time>
      </trkpt>
      <trkpt lat="43.5626" lon="5.20603">
        <ele>208</ele>
        <time>2019-05-07T13:09:58Z</time>
      </trkpt>
      <trkpt lat="43.56258" lon="5.20615">
        <ele>208</ele>
        <time>2019-05-07T13:10:09Z</time>
      </trkpt>
      <trkpt lat="43.56255" lon="5.20628">
        <ele>208</ele>
        <time>2019-05-07T13:10:21Z</time>
      </trkpt>
      <trkpt lat="43.56254" lon="5.20641">
        <ele>209</ele>
        <time>2019-05-07T13:10:35Z</time>
      </trkpt>
      <trkpt lat="43.56258" lon="5.20653">
        <ele>210</ele>
        <time>2019-05-07T13:10:48Z</time>
      </trkpt>
      <trkpt lat="43.56266" lon="5.2066">
        <ele>211</ele>
        <time>2019-05-07T13:11:05Z</time>
      </trkpt>
      <trkpt lat="43.56275" lon="5.20661">
        <ele>210</ele>
        <time>2019-05-07T13:11:17Z</time>
      </trkpt>
      <trkpt lat="43.56284" lon="5.20663">
        <ele>210</ele>
        <time>2019-05-07T13:11:28Z</time>
      </trkpt>
      <trkpt lat="43.5629" lon="5.20673">
        <ele>211</ele>
        <time>2019-05-07T13:12:13Z</time>
      </trkpt>
      <trkpt lat="43.56294" lon="5.20684">
        <ele>211</ele>
        <time>2019-05-07T13:12:24Z</time>
      </trkpt>
      <trkpt lat="43.56299" lon="5.20696">
        <ele>212</ele>
        <time>2019-05-07T13:12:35Z</time>
      </trkpt>
      <trkpt lat="43.56304" lon="5.20706">
        <ele>210</ele>
        <time>2019-05-07T13:12:45Z</time>
      </trkpt>
      <trkpt lat="43.56308" lon="5.20717">
        <ele>211</ele>
        <time>2019-05-07T13:12:56Z</time>
      </trkpt>
      <trkpt lat="43.56311" lon="5.2073">
        <ele>211</ele>
        <time>2019-05-07T13:13:07Z</time>
      </trkpt>
      <trkpt lat="43.56313" lon="5.20742">
        <ele>213</ele>
        <time>2019-05-07T13:13:17Z</time>
      </trkpt>
      <trkpt lat="43.56313" lon="5.20756">
        <ele>213</ele>
        <time>2019-05-07T13:13:27Z</time>
      </trkpt>
      <trkpt lat="43.56312" lon="5.20769">
        <ele>213</ele>
        <time>2019-05-07T13:13:37Z</time>
      </trkpt>
      <trkpt lat="43.56311" lon="5.20781">
        <ele>214</ele>
        <time>2019-05-07T13:13:49Z</time>
      </trkpt>
      <trkpt lat="43.56311" lon="5.20795">
        <ele>215</ele>
        <time>2019-05-07T13:14:00Z</time>
      </trkpt>
      <trkpt lat="43.56314" lon="5.20807">
        <ele>216</ele>
        <time>2019-05-07T13:14:10Z</time>
      </trkpt>
      <trkpt lat="43.56313" lon="5.2082">
        <ele>218</ele>
        <time>2019-05-07T13:14:20Z</time>
      </trkpt>
      <trkpt lat="43.56311" lon="5.20834">
        <ele>218</ele>
        <time>2019-05-07T13:14:29Z</time>
      </trkpt>
      <trkpt lat="43.56308" lon="5.20846">
        <ele>219</ele>
        <time>2019-05-07T13:14:39Z</time>
      </trkpt>
      <trkpt lat="43.56308" lon="5.20859">
        <ele>219</ele>
        <time>2019-05-07T13:14:57Z</time>
      </trkpt>
      <trkpt lat="43.56306" lon="5.20873">
        <ele>220</ele>
        <time>2019-05-07T13:15:07Z</time>
      </trkpt>
      <trkpt lat="43.56306" lon="5.20886">
        <ele>221</ele>
        <time>2019-05-07T13:15:16Z</time>
      </trkpt>
      <trkpt lat="43.56302" lon="5.20897">
        <ele>221</ele>
        <time>2019-05-07T13:15:25Z</time>
      </trkpt>
      <trkpt lat="43.56296" lon="5.20908">
        <ele>220</ele>
        <time>2019-05-07T13:15:34Z</time>
      </trkpt>
      <trkpt lat="43.56291" lon="5.2092">
        <ele>221</ele>
        <time>2019-05-07T13:15:44Z</time>
      </trkpt>
      <trkpt lat="43.56285" lon="5.2093">
        <ele>221</ele>
        <time>2019-05-07T13:15:54Z</time>
      </trkpt>
      <trkpt lat="43.56279" lon="5.2094">
        <ele>221</ele>
        <time>2019-05-07T13:16:04Z</time>
      </trkpt>
      <trkpt lat="43.56274" lon="5.20951">
        <ele>222</ele>
        <time>2019-05-07T13:16:14Z</time>
      </trkpt>
      <trkpt lat="43.56268" lon="5.20962">
        <ele>222</ele>
        <time>2019-05-07T13:16:25Z</time>
      </trkpt>
      <trkpt lat="43.56264" lon="5.20973">
        <ele>222</ele>
        <time>2019-05-07T13:16:36Z</time>
      </trkpt>
      <trkpt lat="43.56258" lon="5.20983">
        <ele>222</ele>
        <time>2019-05-07T13:16:48Z</time>
      </trkpt>
      <trkpt lat="43.56251" lon="5.20993">
        <ele>222</ele>
        <time>2019-05-07T13:16:59Z</time>
      </trkpt>
      <trkpt lat="43.56244" lon="5.21002">
        <ele>222</ele>
        <time>2019-05-07T13:17:10Z</time>
      </trkpt>
      <trkpt lat="43.56239" lon="5.21013">
        <ele>221</ele>
        <time>2019-05-07T13:17:20Z</time>
      </trkpt>
      <trkpt lat="43.56235" lon="5.21023">
        <ele>221</ele>
        <time>2019-05-07T13:17:28Z</time>
      </trkpt>
      <trkpt lat="43.5623" lon="5.21035">
        <ele>220</ele>
        <time>2019-05-07T13:17:37Z</time>
      </trkpt>
      <trkpt lat="43.56227" lon="5.21047">
        <ele>220</ele>
        <time>2019-05-07T13:17:46Z</time>
      </trkpt>
      <trkpt lat="43.56225" lon="5.21059">
        <ele>221</ele>
        <time>2019-05-07T13:17:56Z</time>
      </trkpt>
      <trkpt lat="43.56222" lon="5.21072">
        <ele>221</ele>
        <time>2019-05-07T13:18:05Z</time>
      </trkpt>
      <trkpt lat="43.56221" lon="5.21084">
        <ele>221</ele>
        <time>2019-05-07T13:18:15Z</time>
      </trkpt>
      <trkpt lat="43.56218" lon="5.21096">
        <ele>221</ele>
        <time>2019-05-07T13:18:27Z</time>
      </trkpt>
      <trkpt lat="43.56215" lon="5.21109">
        <ele>221</ele>
        <time>2019-05-07T13:18:38Z</time>
      </trkpt>
      <trkpt lat="43.56212" lon="5.2112">
        <ele>222</ele>
        <time>2019-05-07T13:18:48Z</time>
      </trkpt>
      <trkpt lat="43.56207" lon="5.21132">
        <ele>223</ele>
        <time>2019-05-07T13:18:59Z</time>
      </trkpt>
      <trkpt lat="43.56201" lon="5.21143">
        <ele>222</ele>
        <time>2019-05-07T13:19:10Z</time>
      </trkpt>
      <trkpt lat="43.56196" lon="5.21154">
        <ele>223</ele>
        <time>2019-05-07T13:19:20Z</time>
      </trkpt>
      <trkpt lat="43.56193" lon="5.21166">
        <ele>222</ele>
        <time>2019-05-07T13:19:30Z</time>
      </trkpt>
      <trkpt lat="43.5619" lon="5.21179">
        <ele>221</ele>
        <time>2019-05-07T13:19:43Z</time>
      </trkpt>
      <trkpt lat="43.56187" lon="5.21191">
        <ele>221</ele>
        <time>2019-05-07T13:19:54Z</time>
      </trkpt>
      <trkpt lat="43.56183" lon="5.21203">
        <ele>219</ele>
        <time>2019-05-07T13:20:04Z</time>
      </trkpt>
      <trkpt lat="43.56179" lon="5.21215">
        <ele>219</ele>
        <time>2019-05-07T13:20:16Z</time>
      </trkpt>
      <trkpt lat="43.56175" lon="5.21226">
        <ele>218</ele>
        <time>2019-05-07T13:20:27Z</time>
      </trkpt>
      <trkpt lat="43.56171" lon="5.21239">
        <ele>218</ele>
        <time>2019-05-07T13:20:40Z</time>
      </trkpt>
      <trkpt lat="43.56167" lon="5.21251">
        <ele>216</ele>
        <time>2019-05-07T13:20:51Z</time>
      </trkpt>
      <trkpt lat="43.56165" lon="5.21264">
        <ele>215</ele>
        <time>2019-05-07T13:21:03Z</time>
      </trkpt>
      <trkpt lat="43.56161" lon="5.21276">
        <ele>215</ele>
        <time>2019-05-07T13:21:16Z</time>
      </trkpt>
      <trkpt lat="43.56156" lon="5.21287">
        <ele>216</ele>
        <time>2019-05-07T13:22:02Z</time>
      </trkpt>
      <trkpt lat="43.56151" lon="5.21299">
        <ele>217</ele>
        <time>2019-05-07T13:22:14Z</time>
      </trkpt>
      <trkpt lat="43.56145" lon="5.21308">
        <ele>215</ele>
        <time>2019-05-07T13:22:24Z</time>
      </trkpt>
      <trkpt lat="43.56139" lon="5.21319">
        <ele>217</ele>
        <time>2019-05-07T13:22:35Z</time>
      </trkpt>
      <trkpt lat="43.56133" lon="5.21329">
        <ele>216</ele>
        <time>2019-05-07T13:22:45Z</time>
      </trkpt>
      <trkpt lat="43.56129" lon="5.21341">
        <ele>216</ele>
        <time>2019-05-07T13:22:57Z</time>
      </trkpt>
      <trkpt lat="43.56125" lon="5.21353">
        <ele>215</ele>
        <time>2019-05-07T13:24:01Z</time>
      </trkpt>
      <trkpt lat="43.56124" lon="5.21366">
        <ele>215</ele>
        <time>2019-05-07T13:24:27Z</time>
      </trkpt>
      <trkpt lat="43.56121" lon="5.21379">
        <ele>214</ele>
        <time>2019-05-07T13:24:41Z</time>
      </trkpt>
      <trkpt lat="43.56116" lon="5.21389">
        <ele>213</ele>
        <time>2019-05-07T13:24:55Z</time>
      </trkpt>
      <trkpt lat="43.5611" lon="5.21399">
        <ele>213</ele>
        <time>2019-05-07T13:25:08Z</time>
      </trkpt>
      <trkpt lat="43.56104" lon="5.2141">
        <ele>212</ele>
        <time>2019-05-07T13:25:19Z</time>
      </trkpt>
      <trkpt lat="43.56096" lon="5.21417">
        <ele>211</ele>
        <time>2019-05-07T13:25:31Z</time>
      </trkpt>
      <trkpt lat="43.56087" lon="5.21421">
        <ele>209</ele>
        <time>2019-05-07T13:25:43Z</time>
      </trkpt>
      <trkpt lat="43.56078" lon="5.21425">
        <ele>208</ele>
        <time>2019-05-07T13:25:55Z</time>
      </trkpt>
      <trkpt lat="43.56071" lon="5.21435">
        <ele>206</ele>
        <time>2019-05-07T13:26:08Z</time>
      </trkpt>
      <trkpt lat="43.56064" lon="5.21443">
        <ele>204</ele>
        <time>2019-05-07T13:26:20Z</time>
      </trkpt>
      <trkpt lat="43.56058" lon="5.21453">
        <ele>203</ele>
        <time>2019-05-07T13:26:37Z</time>
      </trkpt>
      <trkpt lat="43.5605" lon="5.21459">
        <ele>202</ele>
        <time>2019-05-07T13:26:48Z</time>
      </trkpt>
      <trkpt lat="43.56044" lon="5.2147">
        <ele>200</ele>
        <time>2019-05-07T13:27:03Z</time>
      </trkpt>
      <trkpt lat="43.56038" lon="5.2148">
        <ele>199</ele>
        <time>2019-05-07T13:27:15Z</time>
      </trkpt>
      <trkpt lat="43.56033" lon="5.21491">
        <ele>198</ele>
        <time>2019-05-07T13:27:27Z</time>
      </trkpt>
      <trkpt lat="43.56024" lon="5.21493">
        <ele>196</ele>
        <time>2019-05-07T13:27:40Z</time>
      </trkpt>
      <trkpt lat="43.56023" lon="5.2148">
        <ele>195</ele>
        <time>2019-05-07T13:27:51Z</time>
      </trkpt>
      <trkpt lat="43.56027" lon="5.21469">
        <ele>194</ele>
        <time>2019-05-07T13:28:01Z</time>
      </trkpt>
      <trkpt lat="43.5603" lon="5.21456">
        <ele>193</ele>
        <time>2019-05-07T13:28:12Z</time>
      </trkpt>
      <trkpt lat="43.56033" lon="5.21443">
        <ele>192</ele>
        <time>2019-05-07T13:29:15Z</time>
      </trkpt>
      <trkpt lat="43.56036" lon="5.2143">
        <ele>190</ele>
        <time>2019-05-07T13:29:31Z</time>
      </trkpt>
      <trkpt lat="43.56038" lon="5.21417">
        <ele>190</ele>
        <time>2019-05-07T13:29:42Z</time>
      </trkpt>
      <trkpt lat="43.56041" lon="5.21405">
        <ele>189</ele>
        <time>2019-05-07T13:29:54Z</time>
      </trkpt>
      <trkpt lat="43.56044" lon="5.21393">
        <ele>188</ele>
        <time>2019-05-07T13:30:06Z</time>
      </trkpt>
      <trkpt lat="43.56048" lon="5.21382">
        <ele>186</ele>
        <time>2019-05-07T13:30:17Z</time>
      </trkpt>
      <trkpt lat="43.56054" lon="5.21371">
        <ele>186</ele>
        <time>2019-05-07T13:30:28Z</time>
      </trkpt>
      <trkpt lat="43.56059" lon="5.21359">
        <ele>185</ele>
        <time>2019-05-07T13:30:40Z</time>
      </trkpt>
      <trkpt lat="43.56059" lon="5.21347">
        <ele>185</ele>
        <time>2019-05-07T13:30:51Z</time>
      </trkpt>
      <trkpt lat="43.56056" lon="5.21335">
        <ele>184</ele>
        <time>2019-05-07T13:31:03Z</time>
      </trkpt>
      <trkpt lat="43.56051" lon="5.21323">
        <ele>182</ele>
        <time>2019-05-07T13:31:14Z</time>
      </trkpt>
      <trkpt lat="43.56047" lon="5.21311">
        <ele>181</ele>
        <time>2019-05-07T13:31:25Z</time>
      </trkpt>
      <trkpt lat="43.56044" lon="5.21299">
        <ele>181</ele>
        <time>2019-05-07T13:31:35Z</time>
      </trkpt>
      <trkpt lat="43.56042" lon="5.21286">
        <ele>181</ele>
        <time>2019-05-07T13:31:46Z</time>
      </trkpt>
      <trkpt lat="43.56044" lon="5.21273">
        <ele>180</ele>
        <time>2019-05-07T13:31:57Z</time>
      </trkpt>
      <trkpt lat="43.56045" lon="5.2126">
        <ele>179</ele>
        <time>2019-05-07T13:32:09Z</time>
      </trkpt>
      <trkpt lat="43.56043" lon="5.21247">
        <ele>178</ele>
        <time>2019-05-07T13:32:19Z</time>
      </trkpt>
      <trkpt lat="43.56038" lon="5.21236">
        <ele>178</ele>
        <time>2019-05-07T13:32:30Z</time>
      </trkpt>
      <trkpt lat="43.56032" lon="5.21226">
        <ele>177</ele>
        <time>2019-05-07T13:32:40Z</time>
      </trkpt>
      <trkpt lat="43.56026" lon="5.21215">
        <ele>176</ele>
        <time>2019-05-07T13:32:51Z</time>
      </trkpt>
      <trkpt lat="43.56026" lon="5.21203">
        <ele>176</ele>
        <time>2019-05-07T13:32:59Z</time>
      </trkpt>
      <trkpt lat="43.5603" lon="5.21192">
        <ele>175</ele>
        <time>2019-05-07T13:33:08Z</time>
      </trkpt>
      <trkpt lat="43.56034" lon="5.2118">
        <ele>174</ele>
        <time>2019-05-07T13:33:18Z</time>
      </trkpt>
      <trkpt lat="43.56037" lon="5.21167">
        <ele>173</ele>
        <time>2019-05-07T13:33:28Z</time>
      </trkpt>
      <trkpt lat="43.5604" lon="5.21155">
        <ele>175</ele>
        <time>2019-05-07T13:33:38Z</time>
      </trkpt>
      <trkpt lat="43.56036" lon="5.21143">
        <ele>176</ele>
        <time>2019-05-07T13:33:48Z</time>
      </trkpt>
      <trkpt lat="43.56029" lon="5.21135">
        <ele>179</ele>
        <time>2019-05-07T13:38:42Z</time>
      </trkpt>
      <trkpt lat="43.56022" lon="5.21125">
        <ele>171</ele>
        <time>2019-05-07T13:38:56Z</time>
      </trkpt>
      <trkpt lat="43.56013" lon="5.21122">
        <ele>169</ele>
        <time>2019-05-07T13:39:07Z</time>
      </trkpt>
      <trkpt lat="43.56003" lon="5.2112">
        <ele>168</ele>
        <time>2019-05-07T13:39:18Z</time>
      </trkpt>
      <trkpt lat="43.55993" lon="5.21117">
        <ele>167</ele>
        <time>2019-05-07T13:39:28Z</time>
      </trkpt>
      <trkpt lat="43.55984" lon="5.21113">
        <ele>166</ele>
        <time>2019-05-07T13:39:39Z</time>
      </trkpt>
      <trkpt lat="43.55977" lon="5.21106">
        <ele>164</ele>
        <time>2019-05-07T13:42:19Z</time>
      </trkpt>
      <trkpt lat="43.55971" lon="5.21096">
        <ele>165</ele>
        <time>2019-05-07T13:42:31Z</time>
      </trkpt>
      <trkpt lat="43.55966" lon="5.21086">
        <ele>164</ele>
        <time>2019-05-07T13:42:42Z</time>
      </trkpt>
      <trkpt lat="43.55961" lon="5.21075">
        <ele>166</ele>
        <time>2019-05-07T13:42:53Z</time>
      </trkpt>
      <trkpt lat="43.55957" lon="5.21062">
        <ele>166</ele>
        <time>2019-05-07T13:43:03Z</time>
      </trkpt>
      <trkpt lat="43.55956" lon="5.2105">
        <ele>167</ele>
        <time>2019-05-07T13:43:13Z</time>
      </trkpt>
      <trkpt lat="43.55958" lon="5.21037">
        <ele>166</ele>
        <time>2019-05-07T13:43:23Z</time>
      </trkpt>
      <trkpt lat="43.55962" lon="5.21026">
        <ele>165</ele>
        <time>2019-05-07T13:43:32Z</time>
      </trkpt>
      <trkpt lat="43.55968" lon="5.21015">
        <ele>164</ele>
        <time>2019-05-07T13:43:41Z</time>
      </trkpt>
      <trkpt lat="43.55973" lon="5.21004">
        <ele>164</ele>
        <time>2019-05-07T13:43:50Z</time>
      </trkpt>
      <trkpt lat="43.55978" lon="5.20994">
        <ele>164</ele>
        <time>2019-05-07T13:43:59Z</time>
      </trkpt>
      <trkpt lat="43.55983" lon="5.20983">
        <ele>163</ele>
        <time>2019-05-07T13:44:07Z</time>
      </trkpt>
      <trkpt lat="43.55987" lon="5.20972">
        <ele>163</ele>
        <time>2019-05-07T13:44:16Z</time>
      </trkpt>
      <trkpt lat="43.55992" lon="5.2096">
        <ele>162</ele>
        <time>2019-05-07T13:44:25Z</time>
      </trkpt>
      <trkpt lat="43.55998" lon="5.2095">
        <ele>161</ele>
        <time>2019-05-07T13:44:34Z</time>
      </trkpt>
      <trkpt lat="43.56002" lon="5.20938">
        <ele>161</ele>
        <time>2019-05-07T13:44:45Z</time>
      </trkpt>
      <trkpt lat="43.56" lon="5.20925">
        <ele>165</ele>
        <time>2019-05-07T13:45:01Z</time>
      </trkpt>
      <trkpt lat="43.55992" lon="5.20916">
        <ele>164</ele>
        <time>2019-05-07T13:45:12Z</time>
      </trkpt>
      <trkpt lat="43.55983" lon="5.2091">
        <ele>163</ele>
        <time>2019-05-07T13:45:23Z</time>
      </trkpt>
      <trkpt lat="43.55976" lon="5.20903">
        <ele>163</ele>
        <time>2019-05-07T13:45:34Z</time>
      </trkpt>
      <trkpt lat="43.55969" lon="5.20894">
        <ele>162</ele>
        <time>2019-05-07T13:45:44Z</time>
      </trkpt>
      <trkpt lat="43.55964" lon="5.20883">
        <ele>159</ele>
        <time>2019-05-07T13:45:55Z</time>
      </trkpt>
      <trkpt lat="43.55959" lon="5.20872">
        <ele>157</ele>
        <time>2019-05-07T13:46:06Z</time>
      </trkpt>
      <trkpt lat="43.55954" lon="5.2086">
        <ele>155</ele>
        <time>2019-05-07T13:46:16Z</time>
      </trkpt>
      <trkpt lat="43.5595" lon="5.20848">
        <ele>155</ele>
        <time>2019-05-07T13:46:26Z</time>
      </trkpt>
      <trkpt lat="43.55948" lon="5.20835">
        <ele>154</ele>
        <time>2019-05-07T13:46:36Z</time>
      </trkpt>
      <trkpt lat="43.55949" lon="5.20822">
        <ele>153</ele>
        <time>2019-05-07T13:46:45Z</time>
      </trkpt>
      <trkpt lat="43.55951" lon="5.2081">
        <ele>151</ele>
        <time>2019-05-07T13:46:57Z</time>
      </trkpt>
      <trkpt lat="43.55954" lon="5.20797">
        <ele>150</ele>
        <time>2019-05-07T13:47:07Z</time>
      </trkpt>
      <trkpt lat="43.55958" lon="5.20785">
        <ele>150</ele>
        <time>2019-05-07T13:47:17Z</time>
      </trkpt>
      <trkpt lat="43.55963" lon="5.20774">
        <ele>149</ele>
        <time>2019-05-07T13:47:29Z</time>
      </trkpt>
      <trkpt lat="43.55969" lon="5.20763">
        <ele>150</ele>
        <time>2019-05-07T13:47:40Z</time>
      </trkpt>
      <trkpt lat="43.55973" lon="5.20752">
        <ele>149</ele>
        <time>2019-05-07T13:47:50Z</time>
      </trkpt>
      <trkpt lat="43.55976" lon="5.20739">
        <ele>149</ele>
        <time>2019-05-07T13:48:00Z</time>
      </trkpt>
      <trkpt lat="43.55971" lon="5.20728">
        <ele>151</ele>
        <time>2019-05-07T13:49:10Z</time>
      </trkpt>
      <trkpt lat="43.55963" lon="5.20722">
        <ele>148</ele>
        <time>2019-05-07T13:49:21Z</time>
      </trkpt>
      <trkpt lat="43.55954" lon="5.20718">
        <ele>145</ele>
        <time>2019-05-07T13:49:31Z</time>
      </trkpt>
      <trkpt lat="43.55944" lon="5.20716">
        <ele>143</ele>
        <time>2019-05-07T13:49:42Z</time>
      </trkpt>
      <trkpt lat="43.55936" lon="5.20712">
        <ele>143</ele>
        <time>2019-05-07T13:49:52Z</time>
      </trkpt>
      <trkpt lat="43.55927" lon="5.20709">
        <ele>143</ele>
        <time>2019-05-07T13:50:00Z</time>
      </trkpt>
      <trkpt lat="43.55917" lon="5.20706">
        <ele>143</ele>
        <time>2019-05-07T13:50:12Z</time>
      </trkpt>
      <trkpt lat="43.5591" lon="5.20698">
        <ele>142</ele>
        <time>2019-05-07T13:50:20Z</time>
      </trkpt>
      <trkpt lat="43.55903" lon="5.20689">
        <ele>141</ele>
        <time>2019-05-07T13:50:34Z</time>
      </trkpt>
      <trkpt lat="43.55896" lon="5.2068">
        <ele>141</ele>
        <time>2019-05-07T13:50:46Z</time>
      </trkpt>
      <trkpt lat="43.55889" lon="5.20672">
        <ele>141</ele>
        <time>2019-05-07T13:50:56Z</time>
      </trkpt>
      <trkpt lat="43.55881" lon="5.20663">
        <ele>141</ele>
        <time>2019-05-07T13:51:06Z</time>
      </trkpt>
      <trkpt lat="43.55873" lon="5.20655">
        <ele>141</ele>
        <time>2019-05-07T13:51:17Z</time>
      </trkpt>
      <trkpt lat="43.55866" lon="5.20645">
        <ele>137</ele>
        <time>2019-05-07T13:51:27Z</time>
      </trkpt>
      <trkpt lat="43.55861" lon="5.20633">
        <ele>136</ele>
        <time>2019-05-07T13:51:37Z</time>
      </trkpt>
      <trkpt lat="43.5586" lon="5.2062">
        <ele>134</ele>
        <time>2019-05-07T13:51:46Z</time>
      </trkpt>
      <trkpt lat="43.5586" lon="5.20608">
        <ele>133</ele>
        <time>2019-05-07T13:51:57Z</time>
      </trkpt>
      <trkpt lat="43.55863" lon="5.20595">
        <ele>133</ele>
        <time>2019-05-07T13:52:21Z</time>
      </trkpt>
      <trkpt lat="43.55865" lon="5.20583">
        <ele>132</ele>
        <time>2019-05-07T13:52:33Z</time>
      </trkpt>
      <trkpt lat="43.55866" lon="5.20571">
        <ele>132</ele>
        <time>2019-05-07T13:52:44Z</time>
      </trkpt>
      <trkpt lat="43.55868" lon="5.20558">
        <ele>130</ele>
        <time>2019-05-07T13:53:15Z</time>
      </trkpt>
      <trkpt lat="43.55871" lon="5.20546">
        <ele>129</ele>
        <time>2019-05-07T13:53:27Z</time>
      </trkpt>
      <trkpt lat="43.55872" lon="5.20533">
        <ele>129</ele>
        <time>2019-05-07T13:53:39Z</time>
      </trkpt>
      <trkpt lat="43.55875" lon="5.20521">
        <ele>128</ele>
        <time>2019-05-07T13:53:51Z</time>
      </trkpt>
      <trkpt lat="43.55879" lon="5.20509">
        <ele>128</ele>
        <time>2019-05-07T13:54:02Z</time>
      </trkpt>
      <trkpt lat="43.55886" lon="5.20498">
        <ele>128</ele>
        <time>2019-05-07T13:54:16Z</time>
      </trkpt>
      <trkpt lat="43.55893" lon="5.20491">
        <ele>128</ele>
        <time>2019-05-07T13:54:27Z</time>
      </trkpt>
      <trkpt lat="43.55901" lon="5.20483">
        <ele>125</ele>
        <time>2019-05-07T13:54:40Z</time>
      </trkpt>
      <trkpt lat="43.55909" lon="5.20475">
        <ele>125</ele>
        <time>2019-05-07T13:54:51Z</time>
      </trkpt>
      <trkpt lat="43.55909" lon="5.20462">
        <ele>125</ele>
        <time>2019-05-07T13:55:03Z</time>
      </trkpt>
      <trkpt lat="43.55901" lon="5.20454">
        <ele>125</ele>
        <time>2019-05-07T13:55:13Z</time>
      </trkpt>
      <trkpt lat="43.55893" lon="5.20447">
        <ele>125</ele>
        <time>2019-05-07T13:55:23Z</time>
      </trkpt>
      <trkpt lat="43.55884" lon="5.20442">
        <ele>126</ele>
        <time>2019-05-07T13:55:33Z</time>
      </trkpt>
      <trkpt lat="43.55875" lon="5.20438">
        <ele>127</ele>
        <time>2019-05-07T13:55:46Z</time>
      </trkpt>
      <trkpt lat="43.55866" lon="5.20435">
        <ele>127</ele>
        <time>2019-05-07T13:55:59Z</time>
      </trkpt>
      <trkpt lat="43.55856" lon="5.20432">
        <ele>128</ele>
        <time>2019-05-07T13:56:08Z</time>
      </trkpt>
      <trkpt lat="43.55847" lon="5.20432">
        <ele>128</ele>
        <time>2019-05-07T13:56:19Z</time>
      </trkpt>
      <trkpt lat="43.55838" lon="5.20432">
        <ele>128</ele>
        <time>2019-05-07T13:56:29Z</time>
      </trkpt>
      <trkpt lat="43.55829" lon="5.20432">
        <ele>127</ele>
        <time>2019-05-07T13:56:39Z</time>
      </trkpt>
      <trkpt lat="43.55819" lon="5.20432">
        <ele>127</ele>
        <time>2019-05-07T13:56:49Z</time>
      </trkpt>
      <trkpt lat="43.55809" lon="5.20432">
        <ele>127</ele>
        <time>2019-05-07T13:56:59Z</time>
      </trkpt>
      <trkpt lat="43.558" lon="5.20431">
        <ele>128</ele>
        <time>2019-05-07T13:57:09Z</time>
      </trkpt>
      <trkpt lat="43.55791" lon="5.20428">
        <ele>127</ele>
        <time>2019-05-07T13:57:20Z</time>
      </trkpt>
      <trkpt lat="43.55789" lon="5.20416">
        <ele>126</ele>
        <time>2019-05-07T13:57:59Z</time>
      </trkpt>
      <trkpt lat="43.55794" lon="5.20404">
        <ele>125</ele>
        <time>2019-05-07T13:58:10Z</time>
      </trkpt>
      <trkpt lat="43.55797" lon="5.20392">
        <ele>124</ele>
        <time>2019-05-07T13:58:21Z</time>
      </trkpt>
      <trkpt lat="43.55801" lon="5.20381">
        <ele>124</ele>
        <time>2019-05-07T13:58:31Z</time>
      </trkpt>
      <trkpt lat="43.55806" lon="5.20369">
        <ele>124</ele>
        <time>2019-05-07T13:58:41Z</time>
      </trkpt>
      <trkpt lat="43.5581" lon="5.20358">
        <ele>126</ele>
        <time>2019-05-07T13:58:51Z</time>
      </trkpt>
      <trkpt lat="43.55815" lon="5.20346">
        <ele>125</ele>
        <time>2019-05-07T13:59:00Z</time>
      </trkpt>
      <trkpt lat="43.55819" lon="5.20334">
        <ele>126</ele>
        <time>2019-05-07T13:59:10Z</time>
      </trkpt>
      <trkpt lat="43.55821" lon="5.20322">
        <ele>127</ele>
        <time>2019-05-07T13:59:19Z</time>
      </trkpt>
      <trkpt lat="43.55815" lon="5.20312">
        <ele>126</ele>
        <time>2019-05-07T13:59:28Z</time>
      </trkpt>
      <trkpt lat="43.55806" lon="5.20306">
        <ele>126</ele>
        <time>2019-05-07T13:59:38Z</time>
      </trkpt>
      <trkpt lat="43.55798" lon="5.20301">
        <ele>127</ele>
        <time>2019-05-07T13:59:48Z</time>
      </trkpt>
      <trkpt lat="43.55791" lon="5.20293">
        <ele>127</ele>
        <time>2019-05-07T13:59:58Z</time>
      </trkpt>
      <trkpt lat="43.55789" lon="5.2028">
        <ele>126</ele>
        <time>2019-05-07T14:00:07Z</time>
      </trkpt>
      <trkpt lat="43.55793" lon="5.20268">
        <ele>126</ele>
        <time>2019-05-07T14:00:18Z</time>
      </trkpt>
      <trkpt lat="43.55801" lon="5.20259">
        <ele>126</ele>
        <time>2019-05-07T14:00:27Z</time>
      </trkpt>
      <trkpt lat="43.55809" lon="5.20252">
        <ele>125</ele>
        <time>2019-05-07T14:00:36Z</time>
      </trkpt>
      <trkpt lat="43.55817" lon="5.20246">
        <ele>125</ele>
        <time>2019-05-07T14:00:45Z</time>
      </trkpt>
      <trkpt lat="43.55825" lon="5.20239">
        <ele>125</ele>
        <time>2019-05-07T14:00:54Z</time>
      </trkpt>
      <trkpt lat="43.55832" lon="5.20232">
        <ele>125</ele>
        <time>2019-05-07T14:01:03Z</time>
      </trkpt>
      <trkpt lat="43.5584" lon="5.20225">
        <ele>125</ele>
        <time>2019-05-07T14:01:12Z</time>
      </trkpt>
      <trkpt lat="43.55849" lon="5.2022">
        <ele>125</ele>
        <time>2019-05-07T14:01:21Z</time>
      </trkpt>
      <trkpt lat="43.55857" lon="5.20213">
        <ele>125</ele>
        <time>2019-05-07T14:01:30Z</time>
      </trkpt>
      <trkpt lat="43.55863" lon="5.20203">
        <ele>128</ele>
        <time>2019-05-07T14:02:47Z</time>
      </trkpt>
      <trkpt lat="43.55867" lon="5.20192">
        <ele>128</ele>
        <time>2019-05-07T14:03:01Z</time>
      </trkpt>
      <trkpt lat="43.55865" lon="5.20179">
        <ele>127</ele>
        <time>2019-05-07T14:03:11Z</time>
      </trkpt>
      <trkpt lat="43.55857" lon="5.2017">
        <ele>126</ele>
        <time>2019-05-07T14:03:20Z</time>
      </trkpt>
      <trkpt lat="43.55848" lon="5.20166">
        <ele>126</ele>
        <time>2019-05-07T14:04:07Z</time>
      </trkpt>
      <trkpt lat="43.55838" lon="5.20163">
        <ele>125</ele>
        <time>2019-05-07T14:04:16Z</time>
      </trkpt>
      <trkpt lat="43.55829" lon="5.20163">
        <ele>126</ele>
        <time>2019-05-07T14:04:26Z</time>
      </trkpt>
      <trkpt lat="43.5582" lon="5.20164">
        <ele>126</ele>
        <time>2019-05-07T14:04:35Z</time>
      </trkpt>
      <trkpt lat="43.5581" lon="5.20161">
        <ele>127</ele>
        <time>2019-05-07T14:04:44Z</time>
      </trkpt>
      <trkpt lat="43.55802" lon="5.20154">
        <ele>126</ele>
        <time>2019-05-07T14:04:54Z</time>
      </trkpt>
      <trkpt lat="43.55794" lon="5.20147">
        <ele>127</ele>
        <time>2019-05-07T14:05:03Z</time>
      </trkpt>
      <trkpt lat="43.55786" lon="5.20138">
        <ele>127</ele>
        <time>2019-05-07T14:05:12Z</time>
      </trkpt>
      <trkpt lat="43.55778" lon="5.20129">
        <ele>126</ele>
        <time>2019-05-07T14:05:21Z</time>
      </trkpt>
      <trkpt lat="43.5577" lon="5.20121">
        <ele>125</ele>
        <time>2019-05-07T14:05:30Z</time>
      </trkpt>
      <trkpt lat="43.55763" lon="5.20112">
        <ele>126</ele>
        <time>2019-05-07T14:05:39Z</time>
      </trkpt>
      <trkpt lat="43.55756" lon="5.20103">
        <ele>125</ele>
        <time>2019-05-07T14:05:48Z</time>
      </trkpt>
      <trkpt lat="43.55749" lon="5.20096">
        <ele>124</ele>
        <time>2019-05-07T14:05:55Z</time>
      </trkpt>
      <trkpt lat="43.55742" lon="5.20088">
        <ele>125</ele>
        <time>2019-05-07T14:06:05Z</time>
      </trkpt>
      <trkpt lat="43.55737" lon="5.20076">
        <ele>123</ele>
        <time>2019-05-07T14:06:15Z</time>
      </trkpt>
      <trkpt lat="43.55737" lon="5.20062">
        <ele>122</ele>
        <time>2019-05-07T14:06:24Z</time>
      </trkpt>
      <trkpt lat="43.55738" lon="5.2005">
        <ele>122</ele>
        <time>2019-05-07T14:06:33Z</time>
      </trkpt>
      <trkpt lat="43.5574" lon="5.20037">
        <ele>121</ele>
        <time>2019-05-07T14:06:41Z</time>
      </trkpt>
      <trkpt lat="43.55741" lon="5.20024">
        <ele>121</ele>
        <time>2019-05-07T14:06:50Z</time>
      </trkpt>
      <trkpt lat="43.55742" lon="5.20011">
        <ele>120</ele>
        <time>2019-05-07T14:06:59Z</time>
      </trkpt>
      <trkpt lat="43.55741" lon="5.19998">
        <ele>119</ele>
        <time>2019-05-07T14:07:07Z</time>
      </trkpt>
      <trkpt lat="43.55741" lon="5.19986">
        <ele>118</ele>
        <time>2019-05-07T14:07:16Z</time>
      </trkpt>
      <trkpt lat="43.55745" lon="5.19973">
        <ele>117</ele>
        <time>2019-05-07T14:07:26Z</time>
      </trkpt>
      <trkpt lat="43.55749" lon="5.19961">
        <ele>116</ele>
        <time>2019-05-07T14:07:35Z</time>
      </trkpt>
      <trkpt lat="43.55754" lon="5.19949">
        <ele>116</ele>
        <time>2019-05-07T14:07:44Z</time>
      </trkpt>
      <trkpt lat="43.55756" lon="5.19937">
        <ele>113</ele>
        <time>2019-05-07T14:07:54Z</time>
      </trkpt>
      <trkpt lat="43.5576" lon="5.19926">
        <ele>114</ele>
        <time>2019-05-07T14:09:25Z</time>
      </trkpt>
      <trkpt lat="43.55766" lon="5.19916">
        <ele>113</ele>
        <time>2019-05-07T14:09:35Z</time>
      </trkpt>
      <trkpt lat="43.55767" lon="5.19903">
        <ele>115</ele>
        <time>2019-05-07T14:09:56Z</time>
      </trkpt>
      <trkpt lat="43.55759" lon="5.19899">
        <ele>115</ele>
        <time>2019-05-07T14:10:06Z</time>
      </trkpt>
      <trkpt lat="43.5575" lon="5.19895">
        <ele>115</ele>
        <time>2019-05-07T14:11:37Z</time>
      </trkpt>
      <trkpt lat="43.55741" lon="5.19896">
        <ele>114</ele>
        <time>2019-05-07T14:11:46Z</time>
      </trkpt>
      <trkpt lat="43.55731" lon="5.19896">
        <ele>113</ele>
        <time>2019-05-07T14:11:55Z</time>
      </trkpt>
      <trkpt lat="43.55722" lon="5.19898">
        <ele>112</ele>
        <time>2019-05-07T14:12:03Z</time>
      </trkpt>
      <trkpt lat="43.55712" lon="5.19897">
        <ele>112</ele>
        <time>2019-05-07T14:12:13Z</time>
      </trkpt>
      <trkpt lat="43.55702" lon="5.19894">
        <ele>110</ele>
        <time>2019-05-07T14:12:22Z</time>
      </trkpt>
      <trkpt lat="43.55693" lon="5.19891">
        <ele>108</ele>
        <time>2019-05-07T14:12:31Z</time>
      </trkpt>
      <trkpt lat="43.55685" lon="5.19886">
        <ele>109</ele>
        <time>2019-05-07T14:12:40Z</time>
      </trkpt>
      <trkpt lat="43.55676" lon="5.19883">
        <ele>108</ele>
        <time>2019-05-07T14:12:48Z</time>
      </trkpt>
      <trkpt lat="43.55666" lon="5.19879">
        <ele>107</ele>
        <time>2019-05-07T14:12:57Z</time>
      </trkpt>
      <trkpt lat="43.55658" lon="5.19873">
        <ele>106</ele>
        <time>2019-05-07T14:13:06Z</time>
      </trkpt>
      <trkpt lat="43.55651" lon="5.19863">
        <ele>105</ele>
        <time>2019-05-07T14:13:16Z</time>
      </trkpt>
      <trkpt lat="43.55646" lon="5.19852">
        <ele>105</ele>
        <time>2019-05-07T14:13:25Z</time>
      </trkpt>
      <trkpt lat="43.55643" lon="5.1984">
        <ele>105</ele>
        <time>2019-05-07T14:13:34Z</time>
      </trkpt>
      <trkpt lat="43.5564" lon="5.19827">
        <ele>104</ele>
        <time>2019-05-07T14:13:44Z</time>
      </trkpt>
      <trkpt lat="43.55636" lon="5.19816">
        <ele>102</ele>
        <time>2019-05-07T14:13:57Z</time>
      </trkpt>
      <trkpt lat="43.55631" lon="5.19806">
        <ele>101</ele>
        <time>2019-05-07T14:14:09Z</time>
      </trkpt>
      <trkpt lat="43.55623" lon="5.19797">
        <ele>100</ele>
        <time>2019-05-07T14:14:25Z</time>
      </trkpt>
      <trkpt lat="43.55614" lon="5.19793">
        <ele>99</ele>
        <time>2019-05-07T14:14:35Z</time>
      </trkpt>
      <trkpt lat="43.55606" lon="5.19786">
        <ele>99</ele>
        <time>2019-05-07T14:14:45Z</time>
      </trkpt>
      <trkpt lat="43.55601" lon="5.19776">
        <ele>98</ele>
        <time>2019-05-07T14:14:55Z</time>
      </trkpt>
      <trkpt lat="43.55597" lon="5.19764">
        <ele>98</ele>
        <time>2019-05-07T14:15:05Z</time>
      </trkpt>
      <trkpt lat="43.55594" lon="5.19752">
        <ele>98</ele>
        <time>2019-05-07T14:15:14Z</time>
      </trkpt>
      <trkpt lat="43.55592" lon="5.19739">
        <ele>96</ele>
        <time>2019-05-07T14:15:26Z</time>
      </trkpt>
      <trkpt lat="43.55594" lon="5.19727">
        <ele>95</ele>
        <time>2019-05-07T14:15:37Z</time>
      </trkpt>
      <trkpt lat="43.55597" lon="5.19715">
        <ele>94</ele>
        <time>2019-05-07T14:15:46Z</time>
      </trkpt>
      <trkpt lat="43.55592" lon="5.19703">
        <ele>95</ele>
        <time>2019-05-07T14:15:55Z</time>
      </trkpt>
      <trkpt lat="43.55583" lon="5.19697">
        <ele>95</ele>
        <time>2019-05-07T14:16:05Z</time>
      </trkpt>
      <trkpt lat="43.55574" lon="5.19692">
        <ele>95</ele>
        <time>2019-05-07T14:16:13Z</time>
      </trkpt>
      <trkpt lat="43.55567" lon="5.19684">
        <ele>94</ele>
        <time>2019-05-07T14:16:20Z</time>
      </trkpt>
      <trkpt lat="43.55563" lon="5.19672">
        <ele>94</ele>
        <time>2019-05-07T14:16:29Z</time>
      </trkpt>
      <trkpt lat="43.55561" lon="5.19659">
        <ele>92</ele>
        <time>2019-05-07T14:16:39Z</time>
      </trkpt>
      <trkpt lat="43.55564" lon="5.19647">
        <ele>91</ele>
        <time>2019-05-07T14:16:48Z</time>
      </trkpt>
      <trkpt lat="43.5557" lon="5.19636">
        <ele>92</ele>
        <time>2019-05-07T14:16:57Z</time>
      </trkpt>
      <trkpt lat="43.55576" lon="5.19626">
        <ele>91</ele>
        <time>2019-05-07T14:17:07Z</time>
      </trkpt>
      <trkpt lat="43.55578" lon="5.19613">
        <ele>92</ele>
        <time>2019-05-07T14:17:16Z</time>
      </trkpt>
      <trkpt lat="43.55583" lon="5.19602">
        <ele>92</ele>
        <time>2019-05-07T14:17:25Z</time>
      </trkpt>
      <trkpt lat="43.55585" lon="5.1959">
        <ele>94</ele>
        <time>2019-05-07T14:17:53Z</time>
      </trkpt>
      <trkpt lat="43.55587" lon="5.19577">
        <ele>94</ele>
        <time>2019-05-07T14:18:04Z</time>
      </trkpt>
      <trkpt lat="43.5559" lon="5.19565">
        <ele>95</ele>
        <time>2019-05-07T14:18:13Z</time>
      </trkpt>
      <trkpt lat="43.55591" lon="5.19552">
        <ele>95</ele>
        <time>2019-05-07T14:18:24Z</time>
      </trkpt>
      <trkpt lat="43.55591" lon="5.19538">
        <ele>93</ele>
        <time>2019-05-07T14:18:35Z</time>
      </trkpt>
      <trkpt lat="43.5559" lon="5.19525">
        <ele>95</ele>
        <time>2019-05-07T14:18:50Z</time>
      </trkpt>
      <trkpt lat="43.5559" lon="5.19512">
        <ele>95</ele>
        <time>2019-05-07T14:19:04Z</time>
      </trkpt>
      <trkpt lat="43.55588" lon="5.195">
        <ele>95</ele>
        <time>2019-05-07T14:19:17Z</time>
      </trkpt>
      <trkpt lat="43.55586" lon="5.19487">
        <ele>97</ele>
        <time>2019-05-07T14:19:30Z</time>
      </trkpt>
      <trkpt lat="43.55584" lon="5.19473">
        <ele>96</ele>
        <time>2019-05-07T14:19:39Z</time>
      </trkpt>
      <trkpt lat="43.55585" lon="5.1946">
        <ele>97</ele>
        <time>2019-05-07T14:19:51Z</time>
      </trkpt>
      <trkpt lat="43.55585" lon="5.19447">
        <ele>97</ele>
        <time>2019-05-07T14:20:00Z</time>
      </trkpt>
      <trkpt lat="43.55585" lon="5.19435">
        <ele>96</ele>
        <time>2019-05-07T14:20:10Z</time>
      </trkpt>
      <trkpt lat="43.55587" lon="5.19422">
        <ele>95</ele>
        <time>2019-05-07T14:20:25Z</time>
      </trkpt>
      <trkpt lat="43.55586" lon="5.19409">
        <ele>97</ele>
        <time>2019-05-07T14:20:36Z</time>
      </trkpt>
      <trkpt lat="43.55587" lon="5.19397">
        <ele>95</ele>
        <time>2019-05-07T14:20:48Z</time>
      </trkpt>
      <trkpt lat="43.55589" lon="5.19384">
        <ele>97</ele>
        <time>2019-05-07T14:20:59Z</time>
      </trkpt>
      <trkpt lat="43.55591" lon="5.19371">
        <ele>96</ele>
        <time>2019-05-07T14:21:08Z</time>
      </trkpt>
      <trkpt lat="43.55595" lon="5.19359">
        <ele>95</ele>
        <time>2019-05-07T14:21:17Z</time>
      </trkpt>
      <trkpt lat="43.55597" lon="5.19346">
        <ele>96</ele>
        <time>2019-05-07T14:21:27Z</time>
      </trkpt>
      <trkpt lat="43.55603" lon="5.19336">
        <ele>93</ele>
        <time>2019-05-07T14:21:40Z</time>
      </trkpt>
      <trkpt lat="43.55613" lon="5.19335">
        <ele>93</ele>
        <time>2019-05-07T14:21:50Z</time>
      </trkpt>
    </trkseg>
  </trk>
</gpx>